Sign-in with your pilot id or email, or register

ICAO: LIPZ Name / Country: Marco Polo Airport / Italy
Latitude: 45.5036 Longitude: 12.3517
Total Arrivals:
Strict Standards: Non-static method AirportData::getarrflights() should not be called statically, assuming $this from incompatible context in /var/www/customers/vh-7192/web/home/phpvms/core/templates/airport_info.tpl on line 18
0
Total Departures:
Strict Standards: Non-static method AirportData::getdeptflights() should not be called statically, assuming $this from incompatible context in /var/www/customers/vh-7192/web/home/phpvms/core/templates/airport_info.tpl on line 21
1
Latest Arrival: (-) Latest Departure: MTA11P (LIPZ-LHBP) Tibor Berces
Metar: LIPZ 221520Z VRB02KT 2000 BR SCT015 13/11 Q1023 NOSIG
More info

Charts for LIPZ


NOTAM


Warning: file_get_contents(http://api.vateud.net/notams/LIPZ.json): failed to open stream: Redirection limit reached, aborting in /var/www/customers/vh-7192/web/home/phpvms/core/common/NOTAMSData.class.php on line 18

Warning: Invalid argument supplied for foreach() in /var/www/customers/vh-7192/web/home/phpvms/core/common/NOTAMSData.class.php on line 22

Marco Polo Airport